sensor_id;sensor_type;location;lat;lon;timestamp;pressure;altitude;pressure_sealevel;temperature;humidity
61337;BME280;47212;41.326;2.104;2022-12-22T00:01:14;102023.81;;;13.74;71.35
61337;BME280;47212;41.326;2.104;2022-12-22T00:06:38;102009.56;;;13.71;71.18
61337;BME280;47212;41.326;2.104;2022-12-22T00:12:02;102017.53;;;13.73;71.31
61337;BME280;47212;41.326;2.104;2022-12-22T00:17:28;102012.31;;;13.71;71.15
61337;BME280;47212;41.326;2.104;2022-12-22T00:22:54;102018.28;;;13.68;71.17
61337;BME280;47212;41.326;2.104;2022-12-22T00:28:22;102001.53;;;13.65;71.42
61337;BME280;47212;41.326;2.104;2022-12-22T00:33:47;102010.25;;;13.62;71.15
61337;BME280;47212;41.326;2.104;2022-12-22T00:39:12;102024.69;;;13.57;71.37
61337;BME280;47212;41.326;2.104;2022-12-22T00:44:34;102026.84;;;13.55;71.31
61337;BME280;47212;41.326;2.104;2022-12-22T00:49:58;102039.13;;;13.53;71.08
61337;BME280;47212;41.326;2.104;2022-12-22T00:55:28;102042.34;;;13.50;71.25
61337;BME280;47212;41.326;2.104;2022-12-22T01:00:52;102051.06;;;13.47;71.65
61337;BME280;47212;41.326;2.104;2022-12-22T01:06:16;102055.94;;;13.45;71.70
61337;BME280;47212;41.326;2.104;2022-12-22T01:11:40;102060.00;;;13.42;71.49
61337;BME280;47212;41.326;2.104;2022-12-22T01:17:08;102040.03;;;13.42;72.04
61337;BME280;47212;41.326;2.104;2022-12-22T01:22:34;102048.75;;;13.38;71.85
61337;BME280;47212;41.326;2.104;2022-12-22T01:27:58;102056.03;;;13.33;71.82
61337;BME280;47212;41.326;2.104;2022-12-22T01:33:23;102066.66;;;13.29;72.09
61337;BME280;47212;41.326;2.104;2022-12-22T01:38:53;102072.13;;;13.29;72.45
61337;BME280;47212;41.326;2.104;2022-12-22T01:44:16;102087.94;;;13.27;72.23
61337;BME280;47212;41.326;2.104;2022-12-22T01:49:47;102082.38;;;13.22;72.27
61337;BME280;47212;41.326;2.104;2022-12-22T01:55:20;102083.22;;;13.23;72.31
61337;BME280;47212;41.326;2.104;2022-12-22T02:05:29;102056.13;;;13.21;72.62
61337;BME280;47212;41.326;2.104;2022-12-22T02:11:18;102048.75;;;13.22;72.72
61337;BME280;47212;41.326;2.104;2022-12-22T02:17:26;102058.03;;;13.21;72.71
61337;BME280;47212;41.326;2.104;2022-12-22T02:28:53;102053.06;;;13.18;72.26
61337;BME280;47212;41.326;2.104;2022-12-22T02:34:19;102050.91;;;13.20;72.63
61337;BME280;47212;41.326;2.104;2022-12-22T02:39:49;102065.66;;;13.19;72.43
61337;BME280;47212;41.326;2.104;2022-12-22T02:45:26;102046.25;;;13.20;72.39
61337;BME280;47212;41.326;2.104;2022-12-22T02:51:08;102058.03;;;13.21;72.37
61337;BME280;47212;41.326;2.104;2022-12-22T02:56:33;102091.66;;;13.21;72.00
61337;BME280;47212;41.326;2.104;2022-12-22T03:01:57;102084.53;;;13.20;71.98
61337;BME280;47212;41.326;2.104;2022-12-22T03:07:22;102065.28;;;13.15;72.50
61337;BME280;47212;41.326;2.104;2022-12-22T03:12:51;102072.31;;;13.11;72.60
61337;BME280;47212;41.326;2.104;2022-12-22T03:18:17;102069.59;;;13.11;72.21
61337;BME280;47212;41.326;2.104;2022-12-22T03:23:39;102055.34;;;13.09;72.71
61337;BME280;47212;41.326;2.104;2022-12-22T03:29:06;102076.38;;;13.08;72.43
61337;BME280;47212;41.326;2.104;2022-12-22T03:34:11;102073.06;;;13.06;72.55
61337;BME280;47212;41.326;2.104;2022-12-22T03:39:15;102062.38;;;13.05;72.09
61337;BME280;47212;41.326;2.104;2022-12-22T03:44:36;102067.25;;;13.03;72.07
61337;BME280;47212;41.326;2.104;2022-12-22T03:49:59;102072.00;;;12.96;72.00
61337;BME280;47212;41.326;2.104;2022-12-22T03:55:04;102068.38;;;12.90;72.21
61337;BME280;47212;41.326;2.104;2022-12-22T04:00:09;102074.31;;;12.87;71.97
61337;BME280;47212;41.326;2.104;2022-12-22T04:05:15;102086.56;;;12.85;71.82
61337;BME280;47212;41.326;2.104;2022-12-22T04:10:21;102084.91;;;12.84;72.01
61337;BME280;47212;41.326;2.104;2022-12-22T04:15:49;102084.91;;;12.84;71.89
61337;BME280;47212;41.326;2.104;2022-12-22T04:20:53;102091.69;;;12.81;72.30
61337;BME280;47212;41.326;2.104;2022-12-22T04:26:01;102092.78;;;12.80;71.97
61337;BME280;47212;41.326;2.104;2022-12-22T04:31:15;102093.00;;;12.79;72.28
61337;BME280;47212;41.326;2.104;2022-12-22T04:36:25;102082.56;;;12.75;72.27
61337;BME280;47212;41.326;2.104;2022-12-22T04:41:30;102096.47;;;12.74;71.74
61337;BME280;47212;41.326;2.104;2022-12-22T04:46:33;102090.66;;;12.70;72.39
61337;BME280;47212;41.326;2.104;2022-12-22T04:51:42;102077.50;;;12.67;72.15
61337;BME280;47212;41.326;2.104;2022-12-22T04:56:47;102090.00;;;12.63;72.53
61337;BME280;47212;41.326;2.104;2022-12-22T05:07:54;102099.63;;;12.54;72.45
61337;BME280;47212;41.326;2.104;2022-12-22T05:13:52;102086.47;;;12.51;72.62
61337;BME280;47212;41.326;2.104;2022-12-22T05:33:35;102131.81;;;12.52;72.66
61337;BME280;47212;41.326;2.104;2022-12-22T05:38:37;102123.16;;;12.55;72.94
61337;BME280;47212;41.326;2.104;2022-12-22T05:43:40;102118.28;;;12.57;73.42
61337;BME280;47212;41.326;2.104;2022-12-22T05:48:42;102129.19;;;12.57;73.27
61337;BME280;47212;41.326;2.104;2022-12-22T05:53:44;102130.63;;;12.60;73.20
61337;BME280;47212;41.326;2.104;2022-12-22T05:58:46;102125.75;;;12.62;73.11
61337;BME280;47212;41.326;2.104;2022-12-22T06:03:54;102135.84;;;12.61;72.51
61337;BME280;47212;41.326;2.104;2022-12-22T06:09:01;102141.78;;;12.58;72.83
61337;BME280;47212;41.326;2.104;2022-12-22T06:14:07;102149.38;;;12.56;72.38
61337;BME280;47212;41.326;2.104;2022-12-22T06:19:09;102136.22;;;12.53;72.59
61337;BME280;47212;41.326;2.104;2022-12-22T06:24:11;102143.81;;;12.51;72.96
61337;BME280;47212;41.326;2.104;2022-12-22T06:29:13;102155.47;;;12.47;72.85
61337;BME280;47212;41.326;2.104;2022-12-22T06:34:14;102147.16;;;12.41;72.68
61337;BME280;47212;41.326;2.104;2022-12-22T06:39:20;102150.38;;;12.38;72.70
61337;BME280;47212;41.326;2.104;2022-12-22T06:44:22;102135.91;;;12.38;72.87
61337;BME280;47212;41.326;2.104;2022-12-22T06:49:24;102147.31;;;12.35;73.16
61337;BME280;47212;41.326;2.104;2022-12-22T06:54:27;102150.50;;;12.32;72.66
61337;BME280;47212;41.326;2.104;2022-12-22T06:59:29;102144.47;;;12.30;72.99
61337;BME280;47212;41.326;2.104;2022-12-22T07:04:31;102143.03;;;12.27;72.42
61337;BME280;47212;41.326;2.104;2022-12-22T07:09:35;102159.91;;;12.24;72.68
61337;BME280;47212;41.326;2.104;2022-12-22T07:14:37;102173.19;;;12.21;72.91
61337;BME280;47212;41.326;2.104;2022-12-22T07:19:39;102173.66;;;12.18;72.95
61337;BME280;47212;41.326;2.104;2022-12-22T07:24:42;102182.94;;;12.17;72.80
61337;BME280;47212;41.326;2.104;2022-12-22T07:29:46;102187.31;;;12.18;72.60
61337;BME280;47212;41.326;2.104;2022-12-22T07:34:50;102181.97;;;12.23;73.07
61337;BME280;47212;41.326;2.104;2022-12-22T07:40:00;102195.75;;;12.28;73.47
61337;BME280;47212;41.326;2.104;2022-12-22T07:45:02;102201.91;;;12.35;73.00
61337;BME280;47212;41.326;2.104;2022-12-22T07:50:06;102204.28;;;12.43;72.41
61337;BME280;47212;41.326;2.104;2022-12-22T07:55:30;102215.91;;;12.50;72.60
61337;BME280;47212;41.326;2.104;2022-12-22T08:00:32;102229.91;;;12.65;72.14
61337;BME280;47212;41.326;2.104;2022-12-22T08:05:36;102231.63;;;13.63;69.62
61337;BME280;47212;41.326;2.104;2022-12-22T08:10:38;102234.91;;;16.12;62.51
61337;BME280;47212;41.326;2.104;2022-12-22T08:15:40;102230.72;;;18.38;56.22
61337;BME280;47212;41.326;2.104;2022-12-22T08:20:48;102213.78;;;19.84;51.82
61337;BME280;47212;41.326;2.104;2022-12-22T08:25:56;102227.00;;;21.97;47.48
61337;BME280;47212;41.326;2.104;2022-12-22T08:31:00;102221.19;;;22.58;46.16
61337;BME280;47212;41.326;2.104;2022-12-22T08:36:03;102221.88;;;22.50;46.65
61337;BME280;47212;41.326;2.104;2022-12-22T08:41:11;102213.88;;;23.17;43.52
61337;BME280;47212;41.326;2.104;2022-12-22T08:46:15;102216.75;;;24.06;42.79
61337;BME280;47212;41.326;2.104;2022-12-22T08:51:20;102215.31;;;24.31;41.79
61337;BME280;47212;41.326;2.104;2022-12-22T08:56:22;102215.13;;;21.77;46.53
61337;BME280;47212;41.326;2.104;2022-12-22T09:01:28;102216.19;;;20.77;48.68
61337;BME280;47212;41.326;2.104;2022-12-22T09:06:36;102205.19;;;20.72;48.59
61337;BME280;47212;41.326;2.104;2022-12-22T09:11:43;102220.50;;;20.88;48.86
61337;BME280;47212;41.326;2.104;2022-12-22T09:16:45;102225.13;;;20.16;50.04
61337;BME280;47212;41.326;2.104;2022-12-22T09:21:47;102223.44;;;19.42;51.80
61337;BME280;47212;41.326;2.104;2022-12-22T09:26:49;102223.59;;;19.66;51.57
61337;BME280;47212;41.326;2.104;2022-12-22T09:31:51;102225.09;;;19.43;52.03
61337;BME280;47212;41.326;2.104;2022-12-22T09:36:53;102231.22;;;19.35;52.41
61337;BME280;47212;41.326;2.104;2022-12-22T09:41:56;102238.44;;;19.31;52.28
61337;BME280;47212;41.326;2.104;2022-12-22T09:47:00;102242.25;;;18.75;53.71
61337;BME280;47212;41.326;2.104;2022-12-22T09:52:03;102228.75;;;18.59;54.63
61337;BME280;47212;41.326;2.104;2022-12-22T09:57:10;102231.56;;;18.38;53.80
61337;BME280;47212;41.326;2.104;2022-12-22T10:07:34;102222.19;;;18.04;54.80
61337;BME280;47212;41.326;2.104;2022-12-22T10:12:36;102220.00;;;18.11;55.56
61337;BME280;47212;41.326;2.104;2022-12-22T10:17:40;102203.44;;;18.41;53.34
61337;BME280;47212;41.326;2.104;2022-12-22T10:22:51;102213.53;;;18.82;53.17
61337;BME280;47212;41.326;2.104;2022-12-22T10:27:57;102220.84;;;19.17;53.53
61337;BME280;47212;41.326;2.104;2022-12-22T10:33:04;102217.31;;;19.55;52.64
61337;BME280;47212;41.326;2.104;2022-12-22T10:43:28;102195.75;;;19.96;51.71
61337;BME280;47212;41.326;2.104;2022-12-22T10:48:36;102174.72;;;20.24;51.98
61337;BME280;47212;41.326;2.104;2022-12-22T10:54:03;102197.72;;;20.49;49.09
61337;BME280;47212;41.326;2.104;2022-12-22T10:59:20;102180.28;;;20.72;49.23
61337;BME280;47212;41.326;2.104;2022-12-22T11:04:29;102189.00;;;20.84;49.94
61337;BME280;47212;41.326;2.104;2022-12-22T11:09:31;102182.53;;;21.13;50.43
61337;BME280;47212;41.326;2.104;2022-12-22T11:15:08;102161.22;;;21.32;48.02
61337;BME280;47212;41.326;2.104;2022-12-22T11:36:03;102134.03;;;21.85;48.07
61337;BME280;47212;41.326;2.104;2022-12-22T11:41:39;102131.59;;;21.98;46.69
61337;BME280;47212;41.326;2.104;2022-12-22T11:52:45;102131.28;;;21.99;47.15
61337;BME280;47212;41.326;2.104;2022-12-22T12:08:56;102095.81;;;22.15;47.05
61337;BME280;47212;41.326;2.104;2022-12-22T12:20:07;102094.56;;;22.21;47.17
61337;BME280;47212;41.326;2.104;2022-12-22T12:31:11;102086.94;;;22.54;47.76
61337;BME280;47212;41.326;2.104;2022-12-22T12:47:32;102056.22;;;22.64;46.30
61337;BME280;47212;41.326;2.104;2022-12-22T12:57:48;102037.63;;;22.51;48.82
61337;BME280;47212;41.326;2.104;2022-12-22T13:03:10;102023.47;;;22.39;47.64
61337;BME280;47212;41.326;2.104;2022-12-22T13:29:44;101983.56;;;22.62;48.34
61337;BME280;47212;41.326;2.104;2022-12-22T13:35:11;101967.41;;;22.64;49.12
61337;BME280;47212;41.326;2.104;2022-12-22T13:40:42;101958.00;;;22.74;49.15
61337;BME280;47212;41.326;2.104;2022-12-22T13:45:53;101969.16;;;22.60;50.02
61337;BME280;47212;41.326;2.104;2022-12-22T13:51:12;101968.66;;;22.08;51.63
61337;BME280;47212;41.326;2.104;2022-12-22T13:56:46;101962.56;;;21.65;52.92
61337;BME280;47212;41.326;2.104;2022-12-22T14:02:12;101971.47;;;21.35;53.81
61337;BME280;47212;41.326;2.104;2022-12-22T14:07:22;101962.22;;;21.25;54.84
61337;BME280;47212;41.326;2.104;2022-12-22T14:12:45;101953.00;;;21.30;54.93
61337;BME280;47212;41.326;2.104;2022-12-22T14:17:48;101952.81;;;21.08;55.67
61337;BME280;47212;41.326;2.104;2022-12-22T14:28:33;101963.66;;;20.53;57.52
61337;BME280;47212;41.326;2.104;2022-12-22T14:33:56;101967.22;;;20.34;58.37
61337;BME280;47212;41.326;2.104;2022-12-22T14:39:23;101967.94;;;20.21;58.31
61337;BME280;47212;41.326;2.104;2022-12-22T14:44:41;101980.28;;;20.10;59.25
61337;BME280;47212;41.326;2.104;2022-12-22T14:50:00;101978.25;;;19.92;59.99
61337;BME280;47212;41.326;2.104;2022-12-22T14:55:05;102001.91;;;19.79;60.36
61337;BME280;47212;41.326;2.104;2022-12-22T15:05:36;101991.69;;;19.80;60.57
61337;BME280;47212;41.326;2.104;2022-12-22T15:18:25;101957.81;;;19.93;59.52
61337;BME280;47212;41.326;2.104;2022-12-22T15:23:32;101945.09;;;19.92;59.57
61337;BME280;47212;41.326;2.104;2022-12-22T15:28:55;101940.66;;;19.96;59.31
61337;BME280;47212;41.326;2.104;2022-12-22T15:34:02;101947.34;;;19.90;59.44
61337;BME280;47212;41.326;2.104;2022-12-22T15:39:15;101952.88;;;19.90;58.99
61337;BME280;47212;41.326;2.104;2022-12-22T15:44:21;101980.56;;;19.85;58.96
61337;BME280;47212;41.326;2.104;2022-12-22T15:49:28;101992.84;;;19.73;58.42
61337;BME280;47212;41.326;2.104;2022-12-22T15:54:31;102012.88;;;19.60;58.49
61337;BME280;47212;41.326;2.104;2022-12-22T15:59:44;102000.59;;;19.42;58.36
61337;BME280;47212;41.326;2.104;2022-12-22T16:05:20;101979.50;;;19.28;59.15
61337;BME280;47212;41.326;2.104;2022-12-22T16:18:33;101981.38;;;18.98;59.94
61337;BME280;47212;41.326;2.104;2022-12-22T16:25:19;102006.06;;;18.85;60.71
61337;BME280;47212;41.326;2.104;2022-12-22T16:30:24;101999.78;;;18.74;60.94
61337;BME280;47212;41.326;2.104;2022-12-22T16:35:28;102002.34;;;18.60;61.56
61337;BME280;47212;41.326;2.104;2022-12-22T16:40:41;102016.75;;;18.47;62.82
61337;BME280;47212;41.326;2.104;2022-12-22T16:45:44;102013.22;;;18.36;62.99
61337;BME280;47212;41.326;2.104;2022-12-22T16:50:52;102020.44;;;18.27;63.62
61337;BME280;47212;41.326;2.104;2022-12-22T16:56:00;102013.56;;;18.20;63.86
61337;BME280;47212;41.326;2.104;2022-12-22T17:01:02;102015.50;;;18.14;63.74
61337;BME280;47212;41.326;2.104;2022-12-22T17:06:04;102013.88;;;18.08;64.68
61337;BME280;47212;41.326;2.104;2022-12-22T17:11:31;102011.97;;;18.03;64.07
61337;BME280;47212;41.326;2.104;2022-12-22T17:18:37;102023.00;;;17.98;63.89
61337;BME280;47212;41.326;2.104;2022-12-22T17:23:46;102033.50;;;17.96;64.03
61337;BME280;47212;41.326;2.104;2022-12-22T17:28:49;102033.78;;;17.90;63.82
61337;BME280;47212;41.326;2.104;2022-12-22T17:33:52;102036.84;;;17.83;63.88
61337;BME280;47212;41.326;2.104;2022-12-22T17:39:11;102044.28;;;17.77;63.88
61337;BME280;47212;41.326;2.104;2022-12-22T17:44:22;102045.41;;;17.71;64.31
61337;BME280;47212;41.326;2.104;2022-12-22T17:49:25;102046.78;;;17.69;64.20
61337;BME280;47212;41.326;2.104;2022-12-22T17:54:31;102048.44;;;17.70;64.49
61337;BME280;47212;41.326;2.104;2022-12-22T17:59:33;102037.69;;;17.63;65.41
61337;BME280;47212;41.326;2.104;2022-12-22T18:04:35;102049.78;;;17.62;64.84
61337;BME280;47212;41.326;2.104;2022-12-22T18:09:37;102042.66;;;17.56;66.30
61337;BME280;47212;41.326;2.104;2022-12-22T18:14:39;102036.06;;;17.47;65.18
61337;BME280;47212;41.326;2.104;2022-12-22T18:21:33;102040.47;;;17.38;66.22
61337;BME280;47212;41.326;2.104;2022-12-22T18:30:25;102049.25;;;17.30;67.87
61337;BME280;47212;41.326;2.104;2022-12-22T18:35:27;102055.31;;;17.27;67.59
61337;BME280;47212;41.326;2.104;2022-12-22T18:40:30;102050.34;;;17.24;69.15
61337;BME280;47212;41.326;2.104;2022-12-22T18:45:32;102054.75;;;17.19;67.86
61337;BME280;47212;41.326;2.104;2022-12-22T18:50:34;102047.88;;;17.17;68.01
61337;BME280;47212;41.326;2.104;2022-12-22T18:55:36;102042.66;;;17.05;69.25
61337;BME280;47212;41.326;2.104;2022-12-22T19:00:41;102041.81;;;16.95;68.39
61337;BME280;47212;41.326;2.104;2022-12-22T19:05:43;102036.56;;;16.88;68.40
61337;BME280;47212;41.326;2.104;2022-12-22T19:16:21;102023.09;;;16.76;69.58
61337;BME280;47212;41.326;2.104;2022-12-22T19:21:30;102037.66;;;16.72;69.33
61337;BME280;47212;41.326;2.104;2022-12-22T19:26:43;102041.22;;;16.67;70.17
61337;BME280;47212;41.326;2.104;2022-12-22T19:32:01;102049.16;;;16.64;69.95
61337;BME280;47212;41.326;2.104;2022-12-22T19:37:10;102049.69;;;16.61;70.85
61337;BME280;47212;41.326;2.104;2022-12-22T19:42:21;102048.03;;;16.54;70.94
61337;BME280;47212;41.326;2.104;2022-12-22T19:47:30;102049.13;;;16.48;70.56
61337;BME280;47212;41.326;2.104;2022-12-22T19:52:46;102048.53;;;16.46;70.59
61337;BME280;47212;41.326;2.104;2022-12-22T19:57:55;102048.50;;;16.41;70.56
61337;BME280;47212;41.326;2.104;2022-12-22T20:02:59;102042.47;;;16.44;69.88
61337;BME280;47212;41.326;2.104;2022-12-22T20:08:09;102031.75;;;16.43;70.27
61337;BME280;47212;41.326;2.104;2022-12-22T20:18:31;102025.69;;;16.36;70.28
61337;BME280;47212;41.326;2.104;2022-12-22T20:23:35;102026.22;;;16.33;70.56
61337;BME280;47212;41.326;2.104;2022-12-22T20:28:38;102017.16;;;16.32;70.05
61337;BME280;47212;41.326;2.104;2022-12-22T20:33:41;102024.84;;;16.30;69.90
61337;BME280;47212;41.326;2.104;2022-12-22T20:38:43;102030.31;;;16.25;69.34
61337;BME280;47212;41.326;2.104;2022-12-22T20:43:46;102013.00;;;16.24;68.26
61337;BME280;47212;41.326;2.104;2022-12-22T20:48:58;102015.75;;;16.24;67.01
61337;BME280;47212;41.326;2.104;2022-12-22T20:54:01;102022.06;;;16.25;67.51
61337;BME280;47212;41.326;2.104;2022-12-22T20:59:16;102023.16;;;16.24;66.50
61337;BME280;47212;41.326;2.104;2022-12-22T21:04:19;102020.97;;;16.26;66.92
61337;BME280;47212;41.326;2.104;2022-12-22T21:09:22;102019.06;;;16.32;66.49
61337;BME280;47212;41.326;2.104;2022-12-22T21:14:25;102006.19;;;16.37;66.28
61337;BME280;47212;41.326;2.104;2022-12-22T21:19:31;102003.44;;;16.42;66.21
61337;BME280;47212;41.326;2.104;2022-12-22T21:24:40;102000.13;;;16.40;65.92
61337;BME280;47212;41.326;2.104;2022-12-22T21:29:44;101992.72;;;16.36;65.94
61337;BME280;47212;41.326;2.104;2022-12-22T21:34:53;101984.19;;;16.32;66.03
61337;BME280;47212;41.326;2.104;2022-12-22T21:39:58;101987.19;;;16.31;66.00
61337;BME280;47212;41.326;2.104;2022-12-22T21:45:13;101986.38;;;16.30;65.44
61337;BME280;47212;41.326;2.104;2022-12-22T21:50:30;101969.63;;;16.32;65.52
61337;BME280;47212;41.326;2.104;2022-12-22T21:55:37;101978.69;;;16.32;65.75
61337;BME280;47212;41.326;2.104;2022-12-22T22:00:50;101980.31;;;16.28;65.49
61337;BME280;47212;41.326;2.104;2022-12-22T22:05:58;101976.75;;;16.28;65.50
61337;BME280;47212;41.326;2.104;2022-12-22T22:18:24;101981.38;;;16.12;65.86
61337;BME280;47212;41.326;2.104;2022-12-22T22:23:26;101984.66;;;16.09;66.16
61337;BME280;47212;41.326;2.104;2022-12-22T22:28:28;101981.88;;;15.99;66.49
61337;BME280;47212;41.326;2.104;2022-12-22T22:33:30;101988.97;;;15.89;66.54
61337;BME280;47212;41.326;2.104;2022-12-22T22:38:32;101993.06;;;15.82;67.65
61337;BME280;47212;41.326;2.104;2022-12-22T22:43:34;101985.66;;;15.82;66.98
61337;BME280;47212;41.326;2.104;2022-12-22T22:48:36;101969.16;;;15.82;66.88
61337;BME280;47212;41.326;2.104;2022-12-22T22:53:39;101958.19;;;15.82;67.08
61337;BME280;47212;41.326;2.104;2022-12-22T22:58:44;101962.31;;;15.85;67.14
61337;BME280;47212;41.326;2.104;2022-12-22T23:03:46;101979.34;;;15.87;67.25
61337;BME280;47212;41.326;2.104;2022-12-22T23:08:48;101980.19;;;15.87;67.68
61337;BME280;47212;41.326;2.104;2022-12-22T23:13:53;101970.84;;;15.88;66.81
61337;BME280;47212;41.326;2.104;2022-12-22T23:18:57;101981.81;;;15.88;67.04
61337;BME280;47212;41.326;2.104;2022-12-22T23:24:22;101979.09;;;15.88;66.82
61337;BME280;47212;41.326;2.104;2022-12-22T23:29:27;101968.94;;;15.89;66.98
61337;BME280;47212;41.326;2.104;2022-12-22T23:34:37;101972.50;;;15.89;66.98
61337;BME280;47212;41.326;2.104;2022-12-22T23:39:46;101975.25;;;15.89;66.82
61337;BME280;47212;41.326;2.104;2022-12-22T23:45:07;101970.84;;;15.88;66.76
61337;BME280;47212;41.326;2.104;2022-12-22T23:50:12;101977.97;;;15.84;67.21
61337;BME280;47212;41.326;2.104;2022-12-22T23:55:18;101962.84;;;15.82;67.08
